< < Back
Terminal Aerodrome Forecast


Current Version              Previous Versions:   1  2  3  4  5  6  7  8  9  

Terminal Aerodrome Forecast

067
FTUS42 KTAE 132320
TAFTLH
TAF
KTLH 132320Z 1400/1424 36004KT P6SM SKC
     FM141500 10006KT P6SM SKC=



Latest METAR

612
SAUS80 KWBC 141400 RRA
MTRTLH
METAR KTLH 141353Z 07005KT 10SM BKN250 06/M09 A3035 RMK AO2 SLP277
T00611089


USA.gov is the U.S. government's official web portal to all federal, state and local government web resources and services.